Hlavní strana
METAR-TAF:

METAR-TAF

Letiště :

Cervia, Itálie

zeměpisná šířka: 44-13N, zeměpisná délka: 012-18E, výška: 6 m

Aktuální stav počasí

Zpráva byla vytvořena před 1 hodinou a 11 minutami, v 16:55 UTC
Severovýchodní vítr 15 kt
Teplota 10°C
Vlhkost vzduchu 62%
Tlak 1022 hPa
Viditelnost 10 km a více
Oblačno až skoro zataženo ve výšce 4000 ft

METAR: LIPC 171655Z 04015KT 9999 BKN040 10/03 Q1022 RMK BKN VIS MIN 9999 WIND THR11 05015KT WIND THR29 05015KT BLU

Čas: 19:06 (18:06 UTC)

Předpověď počasí

Zpráva byla vytvořena před 1 hodinou a 6 minutami, v 17:00 UTC
Předpověď platná od 17 v 18 UTC do 18 v 03 UTC
Severovýchodní vítr 10 kt
Viditelnost 10 km a více
Oblačno až skoro zataženo ve výšce 4000 ft
Dočasný
od 17 v 18 UTC do 18 v 03 UTC
Severovýchodní vítr 15 kt s nárazy do 27 kt
Pravděpodobnost 30% :
Dočasný
od 17 v 18 UTC do 17 v 21 UTC
Viditelnost: 5000 m
déšť

TAF: LIPC 171700Z 1718/1803 04010KT 9999 BKN040 TEMPO 1718/1803 04015G27KT PROB30 TEMPO 1718/1721 5000 RA

Stav a předpovědi počasí z více než 4 000 letišť (zprávy METAR a TAF).

Červené a žluté tečky na mapě představují dostupné meteorologické stanice.

Když kurzor umístíte na tečku, zobrazí se název stanice.

Pak kliknutím zobrazíte stav a předpověď počasí.

Chcete-li změnit mapu, kliknutím na zelené tlačítko se znaménkem +mapu přiblížíte, kliknutím na zelené tlačítko se znaménkem – mapu oddálíte a kliknutím na zelené šipky přejdete na sousední mapy.


METAR-TAF: